weather.gov     
National Weather Service

Terminal Aerodrome Forecast
NWS Homepage
This page is being discontinued on March 12, 2014.
The same data is available at this site. Please update your bookmarks.
Thank you, and we apologize for the inconvenience.
Please send an email to SR-SRH.Webmaster@noaa.gov with any concerns.


Current Version
Previous Version:    01  02  03  04  05  06  07  08  09  10  11  12  13  14  15  16  17  18  19  20  21  22  23  24  25  26  27  28  29  30  
   31  32  33  34  35  36  37  38  39  40  41  
[Printable]
949
FTUS44 KHGX 021138
TAFSGR
TAF
KSGR 021138Z 0212/0312 17005KT 5SM BR VCSH SCT008 BKN040
     FM021500 17011KT P6SM SCT025 BKN050
     FM022000 18011G17KT P6SM VCSH BKN050
     FM030300 18011KT P6SM VCTS BKN040CB BKN250
      TEMPO 0304/0307 35020G30KT 3SM TSRA BKN020CB
     FM030700 36010KT P6SM BKN050 BKN100=




949
FTUS44 KHGX 021138
TAFSGR
TAF
KSGR 021138Z 0212/0312 17005KT 5SM BR VCSH SCT008 BKN040
     FM021500 17011KT P6SM SCT025 BKN050
     FM022000 18011G17KT P6SM VCSH BKN050
     FM030300 18011KT P6SM VCTS BKN040CB BKN250
      TEMPO 0304/0307 35020G30KT 3SM TSRA BKN020CB
     FM030700 36010KT P6SM BKN050 BKN100=


U.S. Dept. of Commerce
NOAA National Weather Service
1325 East West Highway
Silver Spring, MD 20910
E-mail: w-nws.webmaster@noaa.gov
Page last modified: May 16, 2007
NATIONAL WEATHER SERVICE: for Safety, for Work, for Fun - FOR LIFE